createdAt,value
2018-06-19T00:01:11.824Z,21.70
2018-06-19T00:03:39.064Z,17.60
2018-06-19T00:06:06.033Z,17.23
2018-06-19T00:08:32.985Z,16.57
2018-06-19T00:10:59.957Z,17.60
2018-06-19T00:13:26.899Z,19.60
2018-06-19T00:15:53.837Z,26.77
2018-06-19T00:18:23.442Z,17.40
2018-06-19T00:20:51.524Z,23.97
2018-06-19T00:23:18.472Z,23.23
2018-06-19T00:25:45.402Z,19.10
2018-06-19T00:28:12.380Z,22.00
2018-06-19T00:30:39.303Z,19.07
2018-06-19T00:33:06.249Z,16.43
2018-06-19T00:35:33.189Z,20.73
2018-06-19T00:38:00.121Z,16.57
2018-06-19T00:40:27.056Z,18.50
2018-06-19T00:42:54.076Z,19.63
2018-06-19T00:45:21.005Z,16.50
2018-06-19T00:47:47.966Z,25.83
2018-06-19T00:50:14.896Z,22.97
2018-06-19T00:52:41.884Z,18.17
2018-06-19T00:55:08.966Z,21.73
2018-06-19T00:57:35.909Z,19.47
2018-06-19T01:00:02.873Z,18.30
2018-06-19T01:02:29.818Z,21.63
2018-06-19T01:04:56.734Z,19.83
2018-06-19T01:07:23.669Z,19.03
2018-06-19T01:09:50.598Z,20.37
2018-06-19T01:12:17.551Z,19.30
2018-06-19T01:14:44.468Z,23.00
2018-06-19T01:17:11.421Z,28.10
2018-06-19T01:19:38.354Z,20.80
2018-06-19T01:22:05.297Z,20.23
2018-06-19T01:24:32.226Z,25.10
2018-06-19T01:26:59.173Z,22.87
2018-06-19T01:29:26.113Z,24.73
2018-06-19T01:31:53.031Z,23.40
2018-06-19T01:34:19.969Z,21.67
2018-06-19T01:36:46.891Z,21.13
2018-06-19T01:39:13.831Z,23.30
2018-06-19T01:41:40.752Z,22.50
2018-06-19T01:44:07.780Z,20.70
2018-06-19T01:46:34.712Z,23.53
2018-06-19T01:49:01.664Z,20.93
2018-06-19T01:51:28.609Z,23.97
2018-06-19T01:53:55.625Z,24.57
2018-06-19T01:56:22.553Z,25.80
2018-06-19T01:58:49.477Z,20.83
2018-06-19T02:01:16.427Z,21.47
2018-06-19T02:03:43.370Z,25.17
2018-06-19T02:06:10.285Z,26.27
2018-06-19T02:08:37.229Z,23.03
2018-06-19T02:11:04.161Z,25.43
2018-06-19T02:13:31.093Z,26.20
2018-06-19T02:15:58.004Z,25.13
2018-06-19T02:18:24.939Z,26.30
2018-06-19T02:20:51.880Z,30.03
2018-06-19T02:23:18.815Z,21.80
2018-06-19T02:25:45.756Z,23.37
2018-06-19T02:28:12.729Z,26.93
2018-06-19T02:30:39.707Z,23.47
2018-06-19T02:33:06.649Z,28.23
2018-06-19T02:35:33.584Z,23.97
2018-06-19T02:38:00.531Z,25.00
2018-06-19T02:40:27.476Z,24.97
2018-06-19T02:42:54.400Z,28.63
2018-06-19T02:45:21.347Z,24.23
2018-06-19T02:47:48.286Z,23.63
2018-06-19T02:50:15.241Z,29.27
2018-06-19T02:52:42.165Z,27.57
2018-06-19T02:55:09.115Z,25.33
2018-06-19T02:57:36.066Z,29.13
2018-06-19T03:00:03.413Z,28.23
2018-06-19T03:02:30.365Z,30.53
2018-06-19T03:04:57.305Z,27.63
2018-06-19T03:07:24.245Z,27.07
2018-06-19T03:09:51.190Z,25.90
2018-06-19T03:12:18.127Z,25.97
2018-06-19T03:14:45.078Z,28.50
2018-06-19T03:17:12.048Z,27.57
2018-06-19T03:19:38.991Z,27.37
2018-06-19T03:22:05.949Z,27.17
2018-06-19T03:24:32.901Z,25.57
2018-06-19T03:26:59.850Z,25.37
2018-06-19T03:29:26.801Z,26.73
2018-06-19T03:31:53.726Z,26.90
2018-06-19T03:34:20.692Z,34.47
2018-06-19T03:36:47.641Z,25.10
2018-06-19T03:39:14.577Z,26.33
2018-06-19T03:41:41.741Z,25.63
2018-06-19T03:44:08.904Z,26.80
2018-06-19T03:46:35.846Z,26.97
2018-06-19T03:49:03.313Z,26.80
2018-06-19T03:51:30.243Z,25.97
2018-06-19T03:53:57.235Z,26.47
2018-06-19T03:56:24.146Z,25.87
2018-06-19T03:58:51.135Z,23.87
2018-06-19T04:01:18.127Z,25.20
2018-06-19T04:03:45.030Z,26.30
2018-06-19T04:06:11.944Z,22.80
2018-06-19T04:08:38.850Z,26.20
2018-06-19T04:11:05.773Z,26.20
2018-06-19T04:13:32.671Z,26.57
2018-06-19T04:15:59.605Z,25.37
2018-06-19T04:18:26.514Z,23.43
2018-06-19T04:20:53.449Z,23.67
2018-06-19T04:23:20.354Z,24.63
2018-06-19T04:25:47.313Z,24.23
2018-06-19T04:28:14.237Z,23.43
2018-06-19T04:30:41.185Z,24.03
2018-06-19T04:33:08.126Z,23.07
2018-06-19T04:35:35.078Z,24.50
2018-06-19T04:38:02.021Z,24.27
2018-06-19T04:40:28.957Z,23.93
2018-06-19T04:42:55.873Z,22.03
2018-06-19T04:45:22.817Z,22.77
2018-06-19T04:47:49.749Z,24.50
2018-06-19T04:50:16.686Z,23.10
2018-06-19T04:52:43.609Z,24.23
2018-06-19T04:55:10.549Z,22.23
2018-06-19T04:57:37.468Z,22.00
2018-06-19T05:00:04.441Z,22.83
2018-06-19T05:02:31.376Z,24.43
2018-06-19T05:04:58.305Z,22.03
2018-06-19T05:07:25.287Z,23.93
2018-06-19T05:09:52.225Z,21.40
2018-06-19T05:12:19.196Z,21.67
2018-06-19T05:14:46.192Z,22.13
2018-06-19T05:17:13.114Z,22.23
2018-06-19T05:19:40.046Z,19.57
2018-06-19T05:22:07.032Z,26.07
2018-06-19T05:24:33.959Z,21.80
2018-06-19T05:27:00.869Z,22.80
2018-06-19T05:29:27.791Z,20.43
2018-06-19T05:31:54.700Z,22.10
2018-06-19T05:34:21.933Z,24.53
2018-06-19T05:36:48.849Z,21.63
2018-06-19T05:39:15.751Z,21.10
2018-06-19T05:41:42.693Z,20.87
2018-06-19T05:44:09.585Z,21.80
2018-06-19T05:46:37.157Z,21.73
2018-06-19T05:49:04.146Z,19.40
2018-06-19T05:51:31.056Z,21.10
2018-06-19T05:53:58.059Z,20.23
2018-06-19T05:56:24.981Z,20.23
2018-06-19T05:58:51.914Z,23.00
2018-06-19T06:01:18.823Z,19.13
2018-06-19T06:03:45.734Z,18.63
2018-06-19T06:06:12.649Z,21.50
2018-06-19T06:08:39.549Z,20.23
2018-06-19T06:11:06.474Z,18.17
2018-06-19T06:13:33.368Z,20.77
2018-06-19T06:16:00.269Z,20.10
2018-06-19T06:18:27.166Z,20.90
2018-06-19T06:20:54.145Z,20.30
2018-06-19T06:23:21.047Z,20.77
2018-06-19T06:25:47.980Z,19.07
2018-06-19T06:28:14.897Z,20.13
2018-06-19T06:30:41.840Z,17.87
2018-06-19T06:33:08.757Z,18.43
2018-06-19T06:35:35.693Z,20.80
2018-06-19T06:38:02.669Z,18.03
2018-06-19T06:40:29.601Z,20.13
2018-06-19T06:42:56.529Z,22.93
2018-06-19T06:45:23.470Z,19.43
2018-06-19T06:47:50.410Z,18.47
2018-06-19T06:50:17.413Z,21.47
2018-06-19T06:52:44.281Z,18.43
2018-06-19T06:55:11.233Z,16.17
2018-06-19T06:57:38.172Z,16.50
2018-06-19T07:00:05.456Z,16.47
2018-06-19T07:02:32.389Z,16.37
2018-06-19T07:04:59.313Z,17.77
2018-06-19T07:07:26.256Z,20.90
2018-06-19T07:09:53.184Z,16.43
2018-06-19T07:12:20.149Z,15.17
2018-06-19T07:14:47.079Z,14.63
2018-06-19T07:17:14.033Z,16.00
2018-06-19T07:19:40.969Z,12.97
2018-06-19T07:22:07.904Z,17.67
2018-06-19T07:24:34.820Z,14.93
2018-06-19T07:27:01.765Z,15.13
2018-06-19T07:29:28.696Z,15.73
2018-06-19T07:31:55.697Z,15.10
2018-06-19T07:34:22.589Z,12.90
2018-06-19T07:36:49.600Z,12.83
2018-06-19T07:39:16.480Z,15.03
2018-06-19T07:41:43.458Z,12.07
2018-06-19T07:44:10.423Z,17.80
2018-06-19T07:46:37.341Z,14.07
2018-06-19T07:49:04.274Z,14.43
2018-06-19T07:51:31.197Z,18.17
2018-06-19T07:53:58.129Z,15.37
2018-06-19T07:56:25.033Z,13.50
2018-06-19T07:58:51.961Z,15.93
2018-06-19T08:01:18.895Z,17.00
2018-06-19T08:03:45.846Z,13.57
2018-06-19T08:06:12.778Z,17.13
2018-06-19T08:08:39.709Z,14.60
2018-06-19T08:11:06.677Z,13.40
2018-06-19T08:13:33.690Z,12.80
2018-06-19T08:16:00.689Z,14.07
2018-06-19T08:18:27.642Z,13.53
2018-06-19T08:20:54.577Z,15.70
2018-06-19T08:23:21.509Z,16.83
2018-06-19T08:25:48.417Z,15.23
2018-06-19T08:28:15.761Z,14.53
2018-06-19T08:30:42.661Z,16.50
2018-06-19T08:33:09.577Z,17.97
2018-06-19T08:35:36.477Z,14.30
2018-06-19T08:38:03.420Z,14.73
2018-06-19T08:40:30.325Z,14.87
2018-06-19T08:42:57.238Z,14.57
2018-06-19T08:45:24.169Z,16.23
2018-06-19T08:47:51.094Z,14.60
2018-06-19T08:50:18.097Z,14.33
2018-06-19T08:52:45.010Z,14.30
2018-06-19T08:55:11.935Z,14.33
2018-06-19T08:57:38.842Z,14.17
2018-06-19T09:00:05.758Z,14.33
2018-06-19T09:02:32.678Z,17.10
2018-06-19T09:04:59.627Z,14.40
2018-06-19T09:07:26.564Z,14.03
2018-06-19T09:09:53.472Z,15.47
2018-06-19T09:12:20.429Z,13.77
2018-06-19T09:14:47.327Z,13.90
2018-06-19T09:17:14.234Z,17.37
2018-06-19T09:19:41.153Z,14.43
2018-06-19T09:22:08.049Z,14.30
2018-06-19T09:24:34.979Z,14.33
2018-06-19T09:27:02.097Z,22.90
2018-06-19T09:29:32.764Z,13.87
2018-06-19T09:31:59.722Z,13.73
2018-06-19T09:34:27.219Z,14.53
2018-06-19T09:36:54.613Z,16.83
2018-06-19T09:39:21.545Z,17.00
2018-06-19T09:41:48.493Z,14.93
2018-06-19T09:44:15.458Z,19.07
2018-06-19T09:46:42.401Z,15.47
2018-06-19T09:49:09.961Z,15.43
2018-06-19T09:51:38.438Z,16.20
2018-06-19T09:54:05.642Z,16.37
2018-06-19T09:56:32.598Z,13.53
2018-06-19T09:58:59.569Z,17.87
2018-06-19T10:01:26.501Z,17.17
2018-06-19T10:03:53.464Z,17.87
2018-06-19T10:06:20.474Z,17.77
2018-06-19T10:08:47.356Z,20.67
2018-06-19T10:11:14.384Z,17.07
2018-06-19T10:13:41.878Z,18.93
2018-06-19T10:16:08.838Z,18.10
2018-06-19T10:18:36.161Z,18.30
2018-06-19T10:21:03.806Z,14.73
2018-06-19T10:23:30.781Z,16.27
2018-06-19T10:25:57.745Z,15.97
2018-06-19T10:28:24.813Z,17.40
2018-06-19T10:30:51.732Z,15.43
2018-06-19T10:33:18.788Z,16.67
2018-06-19T10:35:45.834Z,12.17
2018-06-19T10:38:12.820Z,10.57
2018-06-19T10:40:41.505Z,12.30
2018-06-19T10:43:08.464Z,12.70
2018-06-19T10:45:35.545Z,9.90
2018-06-19T10:48:03.555Z,11.80
2018-06-19T10:50:30.558Z,9.60
2018-06-19T10:52:57.493Z,7.90
2018-06-19T10:55:24.443Z,7.87
2018-06-19T10:57:51.376Z,11.03
2018-06-19T11:00:18.360Z,7.60
2018-06-19T11:02:45.345Z,10.77
2018-06-19T11:05:12.371Z,6.53
2018-06-19T11:07:39.294Z,6.80
2018-06-19T11:10:06.250Z,7.53
2018-06-19T11:12:33.193Z,7.50
2018-06-19T11:15:00.147Z,9.00
2018-06-19T11:17:27.069Z,9.53
2018-06-19T11:19:54.017Z,8.73
2018-06-19T11:22:20.957Z,7.03
2018-06-19T11:24:47.901Z,7.53
2018-06-19T11:27:15.046Z,8.03
2018-06-19T11:29:42.424Z,7.53
2018-06-19T11:32:09.353Z,9.00
2018-06-19T11:34:36.309Z,7.63
2018-06-19T11:37:03.245Z,7.40
2018-06-19T11:39:30.220Z,7.30
2018-06-19T11:41:57.132Z,9.50
2018-06-19T11:44:24.086Z,12.20
2018-06-19T11:46:51.022Z,8.33
2018-06-19T11:49:18.056Z,8.23
2018-06-19T11:51:44.914Z,8.70
2018-06-19T11:54:11.870Z,6.53
2018-06-19T11:56:38.839Z,11.03
2018-06-19T11:59:05.779Z,8.53
2018-06-19T12:01:32.708Z,7.70
2018-06-19T12:03:59.648Z,8.40
2018-06-19T12:06:26.597Z,7.30
2018-06-19T12:08:53.539Z,7.40
2018-06-19T12:11:20.506Z,5.00
2018-06-19T12:13:47.428Z,5.63
2018-06-19T12:16:14.361Z,5.47
2018-06-19T12:18:41.285Z,5.80
2018-06-19T12:21:08.231Z,4.70
2018-06-19T12:23:35.186Z,3.07
2018-06-19T12:26:02.134Z,2.73
2018-06-19T12:28:29.069Z,2.93
2018-06-19T12:30:56.039Z,3.33
2018-06-19T12:33:22.977Z,2.73
2018-06-19T12:35:49.909Z,3.77
2018-06-19T12:38:16.824Z,2.13
2018-06-19T12:40:43.880Z,4.97
2018-06-19T12:43:11.022Z,2.10
2018-06-19T12:45:38.008Z,4.23
2018-06-19T12:48:05.007Z,2.27
2018-06-19T12:50:43.609Z,2.87
2018-06-19T12:53:22.165Z,2.70
2018-06-19T12:56:01.413Z,2.77
2018-06-19T12:58:28.365Z,2.80
2018-06-19T13:00:55.293Z,4.50
2018-06-19T13:03:33.740Z,3.97
2018-06-19T13:06:12.314Z,4.53
2018-06-19T13:08:39.253Z,2.53
2018-06-19T13:11:06.463Z,2.83
2018-06-19T13:13:44.828Z,2.53
2018-06-19T13:16:23.382Z,2.90
2018-06-19T13:19:01.963Z,3.10
2018-06-19T13:21:28.909Z,3.83
2018-06-19T13:23:55.853Z,3.70
2018-06-19T13:26:22.820Z,4.97
2018-06-19T13:30:05.341Z,5.13
2018-06-19T13:32:32.905Z,4.77
2018-06-19T13:34:59.840Z,3.60
2018-06-19T13:37:26.786Z,3.50
2018-06-19T13:41:06.781Z,5.03
2018-06-19T13:43:45.474Z,6.07
2018-06-19T13:46:12.640Z,2.57
2018-06-19T13:48:40.605Z,5.20
2018-06-19T13:51:07.677Z,3.43
2018-06-19T13:53:34.617Z,3.97
2018-06-19T13:56:13.186Z,4.13
2018-06-19T13:58:40.126Z,4.90
2018-06-19T14:01:07.725Z,4.47
2018-06-19T14:03:34.697Z,3.07
2018-06-19T14:06:01.615Z,3.00
2018-06-19T14:08:39.800Z,3.47
2018-06-19T14:11:18.347Z,5.43
2018-06-19T14:13:45.268Z,4.20
2018-06-19T14:16:12.186Z,4.23
2018-06-19T14:18:39.140Z,4.27
2018-06-19T14:21:06.078Z,4.43
2018-06-19T14:23:32.997Z,3.83
2018-06-19T14:25:59.946Z,5.53
2018-06-19T14:28:26.881Z,4.10
2018-06-19T14:30:53.801Z,3.43
2018-06-19T14:33:20.707Z,2.80
2018-06-19T14:35:47.597Z,4.93
2018-06-19T14:38:14.507Z,4.07
2018-06-19T14:40:41.408Z,7.47
2018-06-19T14:43:08.394Z,4.10
2018-06-19T14:45:35.310Z,2.40
2018-06-19T14:48:02.205Z,6.63
2018-06-19T14:50:29.121Z,3.40
2018-06-19T14:52:56.013Z,2.37
2018-06-19T14:55:22.920Z,5.57
2018-06-19T14:57:49.816Z,3.67
2018-06-19T15:00:16.739Z,3.57
2018-06-19T15:02:43.657Z,3.23
2018-06-19T15:05:10.575Z,4.60
2018-06-19T15:07:42.086Z,5.03
2018-06-19T15:10:09.064Z,3.57
2018-06-19T15:12:35.957Z,2.23
2018-06-19T15:15:02.895Z,2.63
2018-06-19T15:17:29.806Z,3.47
2018-06-19T15:19:56.733Z,4.33
2018-06-19T15:22:23.644Z,3.17
2018-06-19T15:24:50.566Z,2.80
2018-06-19T15:27:17.539Z,4.57
2018-06-19T15:29:44.842Z,4.87
2018-06-19T15:32:11.695Z,4.60
2018-06-19T15:34:38.637Z,5.50
2018-06-19T15:37:05.569Z,3.87
2018-06-19T15:39:32.533Z,6.63
2018-06-19T15:42:00.534Z,4.63
2018-06-19T15:44:29.571Z,3.93
2018-06-19T15:46:58.368Z,4.87
2018-06-19T15:49:27.421Z,4.47
2018-06-19T15:51:56.896Z,5.23
2018-06-19T15:54:23.846Z,4.60
2018-06-19T15:56:50.769Z,5.17
2018-06-19T15:59:17.708Z,4.10
2018-06-19T16:01:44.650Z,3.73
2018-06-19T16:04:11.612Z,5.90
2018-06-19T16:06:38.568Z,4.43
2018-06-19T16:09:07.270Z,6.73
2018-06-19T16:11:34.234Z,5.13
2018-06-19T16:14:01.150Z,2.87
2018-06-19T16:16:28.085Z,5.23
2018-06-19T16:18:55.252Z,7.23
2018-06-19T16:21:22.223Z,5.23
2018-06-19T16:23:49.125Z,4.50
2018-06-19T16:26:16.080Z,5.33
2018-06-19T16:28:43.005Z,7.30
2018-06-19T16:31:09.934Z,6.97
2018-06-19T16:33:36.837Z,6.30
2018-06-19T16:36:03.790Z,5.90
2018-06-19T16:38:30.709Z,8.77
2018-06-19T16:40:57.621Z,5.77
2018-06-19T16:43:24.527Z,6.57
2018-06-19T16:45:51.433Z,7.60
2018-06-19T16:48:18.381Z,5.33
2018-06-19T16:50:45.295Z,6.77
2018-06-19T16:53:12.202Z,5.47
2018-06-19T16:55:39.125Z,7.23
2018-06-19T16:58:06.038Z,5.80
2018-06-19T17:00:32.951Z,7.57
2018-06-19T17:02:59.865Z,4.90
2018-06-19T17:05:26.775Z,6.80
2018-06-19T17:07:53.690Z,5.47
2018-06-19T17:10:20.597Z,5.40
2018-06-19T17:12:47.610Z,8.00
2018-06-19T17:15:14.541Z,6.37
2018-06-19T17:17:41.441Z,7.07
2018-06-19T17:20:08.689Z,8.80
2018-06-19T17:22:37.222Z,7.77
2018-06-19T17:25:04.912Z,7.47
2018-06-19T17:27:33.437Z,7.83
2018-06-19T17:30:00.631Z,8.43
2018-06-19T17:32:29.013Z,7.17
2018-06-19T17:34:55.978Z,6.07
2018-06-19T17:37:23.015Z,7.67
2018-06-19T17:39:49.949Z,8.27
2018-06-19T17:42:16.872Z,6.57
2018-06-19T17:44:43.796Z,12.83
2018-06-19T17:47:10.713Z,7.07
2018-06-19T17:49:44.559Z,8.83
2018-06-19T17:52:11.487Z,8.60
2018-06-19T17:54:38.434Z,8.27
2018-06-19T17:57:05.367Z,9.07
2018-06-19T17:59:32.298Z,8.67
2018-06-19T18:01:59.214Z,7.23
2018-06-19T18:04:26.367Z,8.07
2018-06-19T18:06:53.301Z,7.53
2018-06-19T18:09:20.258Z,8.33
2018-06-19T18:11:47.205Z,6.50
2018-06-19T18:14:14.134Z,7.67
2018-06-19T18:16:41.081Z,6.00
2018-06-19T18:19:08.011Z,7.30
2018-06-19T18:21:34.983Z,9.10
2018-06-19T18:24:04.801Z,6.37
2018-06-19T18:26:31.738Z,10.30
2018-06-19T18:28:58.698Z,13.07
2018-06-19T18:31:25.657Z,6.50
2018-06-19T18:33:52.573Z,8.20
2018-06-19T18:36:19.509Z,8.30
2018-06-19T18:38:46.448Z,8.87
2018-06-19T18:41:13.395Z,7.03
2018-06-19T18:43:40.329Z,6.53
2018-06-19T18:46:07.278Z,5.67
2018-06-19T18:48:34.214Z,5.30
2018-06-19T18:51:01.143Z,7.40
2018-06-19T18:53:28.061Z,5.20
2018-06-19T18:55:55.629Z,6.53
2018-06-19T18:58:22.559Z,5.70
2018-06-19T19:00:49.503Z,6.67
2018-06-19T19:03:16.437Z,6.97
2018-06-19T19:05:44.476Z,6.57
2018-06-19T19:08:17.194Z,8.30
2018-06-19T19:10:48.613Z,7.57
2018-06-19T19:13:15.818Z,9.10
2018-06-19T19:15:48.662Z,7.77
2018-06-19T19:19:24.157Z,9.83
2018-06-19T19:21:51.426Z,10.03
2018-06-19T19:24:18.389Z,9.83
2018-06-19T19:26:51.133Z,8.33
2018-06-19T19:29:23.868Z,7.73
2018-06-19T19:31:50.826Z,6.70
2018-06-19T19:34:17.770Z,9.80
2018-06-19T19:36:50.569Z,8.30
2018-06-19T19:39:22.576Z,8.87
2018-06-19T19:41:49.497Z,6.47
2018-06-19T19:44:16.419Z,8.60
2018-06-19T19:46:49.168Z,6.87
2018-06-19T19:49:16.086Z,9.47
2018-06-19T19:51:43.001Z,9.47
2018-06-19T19:54:09.932Z,7.63
2018-06-19T19:56:42.558Z,7.97
2018-06-19T19:59:09.478Z,8.70
2018-06-19T20:01:36.398Z,6.80
2018-06-19T20:04:03.369Z,9.63
2018-06-19T20:06:30.301Z,10.87
2018-06-19T20:08:57.212Z,8.50
2018-06-19T20:11:24.141Z,7.73
2018-06-19T20:13:51.062Z,9.70
2018-06-19T20:16:17.974Z,10.60
2018-06-19T20:18:44.901Z,11.77
2018-06-19T20:21:11.804Z,9.87
2018-06-19T20:23:38.726Z,8.03
2018-06-19T20:26:05.646Z,8.63
2018-06-19T20:28:32.601Z,10.50
2018-06-19T20:31:00.342Z,8.53
2018-06-19T20:33:27.281Z,12.57
2018-06-19T20:35:54.233Z,10.03
2018-06-19T20:38:21.180Z,9.37
2018-06-19T20:40:48.125Z,11.40
2018-06-19T20:43:15.074Z,10.53
2018-06-19T20:45:42.017Z,7.37
2018-06-19T20:48:08.969Z,11.23
2018-06-19T20:50:35.905Z,11.60
2018-06-19T20:53:02.866Z,7.97
2018-06-19T20:55:29.815Z,10.50
2018-06-19T20:57:56.762Z,9.00
2018-06-19T21:00:23.716Z,9.60
2018-06-19T21:02:50.640Z,12.17
2018-06-19T21:05:17.593Z,10.30
2018-06-19T21:07:44.536Z,10.50
2018-06-19T21:10:11.520Z,10.90
2018-06-19T21:12:38.453Z,11.50
2018-06-19T21:15:05.405Z,11.63
2018-06-19T21:17:32.339Z,9.67
2018-06-19T21:19:59.284Z,12.20
2018-06-19T21:22:26.243Z,10.50
2018-06-19T21:24:53.277Z,11.67
2018-06-19T21:27:20.226Z,8.30
2018-06-19T21:29:47.178Z,11.37
2018-06-19T21:32:14.125Z,7.93
2018-06-19T21:34:41.074Z,9.03
2018-06-19T21:37:08.007Z,12.40
2018-06-19T21:39:34.953Z,8.83
2018-06-19T21:42:01.890Z,8.97
2018-06-19T21:44:28.896Z,10.17
2018-06-19T21:46:56.105Z,6.70
2018-06-19T21:49:23.045Z,11.23
2018-06-19T21:51:49.996Z,11.83
2018-06-19T21:54:16.940Z,10.10
2018-06-19T21:56:44.369Z,9.37
2018-06-19T21:59:11.324Z,12.50
2018-06-19T22:01:38.321Z,10.53
2018-06-19T22:04:05.285Z,9.23
2018-06-19T22:06:32.221Z,9.90
2018-06-19T22:08:59.175Z,8.73
2018-06-19T22:11:26.128Z,12.23
2018-06-19T22:13:53.556Z,14.67
2018-06-19T22:16:20.592Z,11.30
2018-06-19T22:18:47.658Z,12.27
2018-06-19T22:21:14.678Z,11.50
2018-06-19T22:23:41.626Z,9.47
2018-06-19T22:26:08.570Z,12.47
2018-06-19T22:28:35.497Z,10.03
2018-06-19T22:31:02.453Z,11.70
2018-06-19T22:33:29.466Z,12.37
2018-06-19T22:35:56.429Z,9.70
2018-06-19T22:38:23.382Z,11.30
2018-06-19T22:40:50.321Z,8.60
2018-06-19T22:43:17.261Z,12.23
2018-06-19T22:45:44.211Z,9.83
2018-06-19T22:48:11.153Z,10.47
2018-06-19T22:50:38.102Z,13.83
2018-06-19T22:53:05.040Z,8.93
2018-06-19T22:55:32.253Z,10.83
2018-06-19T22:57:59.201Z,12.47
2018-06-19T23:00:26.457Z,10.00
2018-06-19T23:02:58.604Z,10.30
2018-06-19T23:05:25.562Z,10.67
2018-06-19T23:07:52.537Z,12.13
2018-06-19T23:10:19.501Z,12.37
2018-06-19T23:12:46.410Z,12.40
2018-06-19T23:15:13.340Z,10.70
2018-06-19T23:17:40.265Z,12.30
2018-06-19T23:20:07.198Z,13.47
2018-06-19T23:22:34.101Z,9.90
2018-06-19T23:25:01.018Z,8.87
2018-06-19T23:27:27.933Z,11.83
2018-06-19T23:29:54.861Z,13.30
2018-06-19T23:32:21.770Z,15.40
2018-06-19T23:34:48.697Z,9.53
2018-06-19T23:37:15.613Z,10.87
2018-06-19T23:39:42.526Z,7.40
2018-06-19T23:42:09.449Z,9.77
2018-06-19T23:44:36.357Z,10.40
2018-06-19T23:47:03.294Z,11.60
2018-06-19T23:49:30.256Z,9.93
2018-06-19T23:51:57.132Z,10.33
2018-06-19T23:54:24.031Z,10.27
2018-06-19T23:56:50.948Z,14.57
2018-06-19T23:59:17.879Z,12.43
